createdAt,value
2023-12-26T00:01:13.345Z,96831.63
2023-12-26T00:03:40.318Z,96832.28
2023-12-26T00:06:07.790Z,96822.25
2023-12-26T00:08:34.820Z,96813.00
2023-12-26T00:11:02.084Z,96822.47
2023-12-26T00:13:28.854Z,96805.41
2023-12-26T00:15:55.660Z,96807.91
2023-12-26T00:18:22.476Z,96799.88
2023-12-26T00:20:49.495Z,96799.53
2023-12-26T00:23:16.303Z,96796.63
2023-12-26T00:25:45.464Z,96796.28
2023-12-26T00:28:15.021Z,96806.78
2023-12-26T00:30:41.901Z,96797.19
2023-12-26T00:33:08.797Z,96783.84
2023-12-26T00:35:35.868Z,96792.19
2023-12-26T00:38:02.904Z,96778.91
2023-12-26T00:40:29.878Z,96809.50
2023-12-26T00:42:57.248Z,96808.84
2023-12-26T00:45:24.182Z,96814.25
2023-12-26T00:47:51.103Z,96804.88
2023-12-26T00:50:18.056Z,96801.81
2023-12-26T00:52:45.192Z,96804.75
2023-12-26T00:55:11.987Z,96799.25
2023-12-26T00:57:38.800Z,96798.22
2023-12-26T01:00:07.310Z,96799.22
2023-12-26T01:02:34.443Z,96794.50
2023-12-26T01:05:01.389Z,96792.34
2023-12-26T01:07:28.867Z,96793.69
2023-12-26T01:09:56.116Z,96790.66
2023-12-26T01:12:22.955Z,96788.06
2023-12-26T01:14:49.698Z,96782.44
2023-12-26T01:17:16.580Z,96795.16
2023-12-26T01:19:43.461Z,96782.97
2023-12-26T01:22:10.185Z,96796.72
2023-12-26T01:24:37.003Z,96794.59
2023-12-26T01:27:04.172Z,96792.81
2023-12-26T01:29:31.122Z,96785.44
2023-12-26T01:31:57.891Z,96791.78
2023-12-26T01:34:25.058Z,96788.50
2023-12-26T01:36:51.967Z,96784.56
2023-12-26T01:39:19.091Z,96790.53
2023-12-26T01:41:46.294Z,96785.00
2023-12-26T01:44:13.949Z,96785.34
2023-12-26T01:46:41.237Z,96800.81
2023-12-26T01:49:09.385Z,96790.09
2023-12-26T01:51:37.564Z,96790.53
2023-12-26T01:54:04.471Z,96786.59
2023-12-26T01:56:31.924Z,96786.78
2023-12-26T01:58:58.953Z,96795.53
2023-12-26T02:01:25.713Z,96785.25
2023-12-26T02:03:55.796Z,96794.16
2023-12-26T02:06:22.746Z,96789.84
2023-12-26T02:08:50.587Z,96785.56
2023-12-26T02:11:17.655Z,96791.00
2023-12-26T02:13:44.445Z,96782.19
2023-12-26T02:16:16.527Z,96785.00
2023-12-26T02:18:44.184Z,96783.63
2023-12-26T02:21:11.864Z,96781.63
2023-12-26T02:23:41.262Z,96764.59
2023-12-26T02:26:08.828Z,96770.53
2023-12-26T02:28:37.353Z,96772.47
2023-12-26T02:31:06.495Z,96760.38
2023-12-26T02:33:35.364Z,96749.44
2023-12-26T02:36:02.872Z,96763.66
2023-12-26T02:38:29.622Z,96764.31
2023-12-26T02:40:56.446Z,96754.44
2023-12-26T02:43:23.924Z,96742.31
2023-12-26T02:45:50.833Z,96742.91
2023-12-26T02:48:18.281Z,96753.75
2023-12-26T02:50:46.477Z,96749.31
2023-12-26T02:53:13.255Z,96743.59
2023-12-26T02:55:40.049Z,96740.09
2023-12-26T02:58:06.932Z,96747.63
2023-12-26T03:00:33.808Z,96739.25
2023-12-26T03:03:00.843Z,96727.97
2023-12-26T03:05:28.455Z,96725.97
2023-12-26T03:07:55.243Z,96731.84
2023-12-26T03:10:22.369Z,96732.06
2023-12-26T03:12:49.138Z,96740.88
2023-12-26T03:15:17.494Z,96737.25
2023-12-26T03:17:44.572Z,96734.09
2023-12-26T03:20:12.078Z,96733.88
2023-12-26T03:22:42.230Z,96735.00
2023-12-26T03:25:09.342Z,96730.28
2023-12-26T03:27:36.233Z,96738.41
2023-12-26T03:30:03.242Z,96730.59
2023-12-26T03:32:30.049Z,96740.53
2023-12-26T03:34:57.262Z,96733.06
2023-12-26T03:37:24.151Z,96735.69
2023-12-26T03:39:50.992Z,96722.50
2023-12-26T03:42:20.200Z,96721.59
2023-12-26T03:44:48.981Z,96720.91
2023-12-26T03:47:15.977Z,96715.16
2023-12-26T03:49:43.401Z,96712.69
2023-12-26T03:52:10.730Z,96724.63
2023-12-26T03:54:38.186Z,96728.47
2023-12-26T03:57:05.296Z,96719.88
2023-12-26T03:59:32.208Z,96716.75
2023-12-26T04:01:58.935Z,96726.44
2023-12-26T04:04:26.263Z,96724.06
2023-12-26T04:06:53.256Z,96728.13
2023-12-26T04:09:21.269Z,96728.81
2023-12-26T04:11:48.380Z,96727.56
2023-12-26T04:14:15.640Z,96739.53
2023-12-26T04:16:43.668Z,96742.78
2023-12-26T04:19:11.048Z,96737.25
2023-12-26T04:21:38.130Z,96741.13
2023-12-26T04:24:05.692Z,96737.25
2023-12-26T04:26:32.482Z,96750.69
2023-12-26T04:28:59.224Z,96754.53
2023-12-26T04:31:27.014Z,96747.88
2023-12-26T04:33:54.141Z,96745.84
2023-12-26T04:36:21.349Z,96742.66
2023-12-26T04:38:48.295Z,96749.09
2023-12-26T04:41:15.081Z,96764.69
2023-12-26T04:43:41.864Z,96747.63
2023-12-26T04:46:08.665Z,96765.59
2023-12-26T04:48:36.098Z,96751.13
2023-12-26T04:51:03.502Z,96759.59
2023-12-26T04:53:30.684Z,96764.81
2023-12-26T04:55:57.556Z,96753.50
2023-12-26T04:58:24.374Z,96769.28
2023-12-26T05:00:51.121Z,96774.72
2023-12-26T05:03:18.076Z,96775.50
2023-12-26T05:05:45.327Z,96748.63
2023-12-26T05:08:12.139Z,96771.69
2023-12-26T05:10:38.978Z,96776.75
2023-12-26T05:13:05.729Z,96777.56
2023-12-26T05:15:32.747Z,96778.22
2023-12-26T05:18:00.008Z,96783.56
2023-12-26T05:20:31.186Z,96779.59
2023-12-26T05:22:59.435Z,96781.94
2023-12-26T05:25:27.754Z,96791.19
2023-12-26T05:27:55.044Z,96779.69
2023-12-26T05:30:21.878Z,96785.66
2023-12-26T05:32:49.296Z,96771.91
2023-12-26T05:35:18.366Z,96800.91
2023-12-26T05:37:46.479Z,96793.44
2023-12-26T05:40:13.454Z,96780.34
2023-12-26T05:42:40.396Z,96804.16
2023-12-26T05:45:07.536Z,96800.34
2023-12-26T05:47:34.482Z,96809.38
2023-12-26T05:50:01.804Z,96835.47
2023-12-26T05:52:28.882Z,96806.22
2023-12-26T05:54:56.507Z,96797.66
2023-12-26T05:57:23.402Z,96797.66
2023-12-26T05:59:50.784Z,96813.56
2023-12-26T06:02:17.649Z,96800.59
2023-12-26T06:04:44.413Z,96817.19
2023-12-26T06:07:13.023Z,96807.69
2023-12-26T06:09:40.162Z,96821.59
2023-12-26T06:12:09.511Z,96837.72
2023-12-26T06:14:36.437Z,96843.78
2023-12-26T06:17:03.868Z,96843.13
2023-12-26T06:19:30.962Z,96838.72
2023-12-26T06:21:58.159Z,96851.47
2023-12-26T06:24:25.608Z,96833.75
2023-12-26T06:26:53.223Z,96841.78
2023-12-26T06:29:20.169Z,96846.63
2023-12-26T06:31:47.000Z,96847.66
2023-12-26T06:34:13.903Z,96853.16
2023-12-26T06:36:40.816Z,96857.25
2023-12-26T06:39:07.785Z,96850.00
2023-12-26T06:41:34.612Z,96846.72
2023-12-26T06:44:01.516Z,96856.31
2023-12-26T06:46:28.477Z,96839.16
2023-12-26T06:48:55.730Z,96852.47
2023-12-26T06:51:22.529Z,96862.06
2023-12-26T06:53:49.644Z,96856.31
2023-12-26T06:56:16.500Z,96871.38
2023-12-26T06:58:43.283Z,96881.91
2023-12-26T07:01:11.301Z,96879.06
2023-12-26T07:03:38.206Z,96894.00
2023-12-26T07:06:05.834Z,96887.34
2023-12-26T07:08:32.687Z,96894.00
2023-12-26T07:10:59.442Z,96907.69
2023-12-26T07:13:26.255Z,96908.00
2023-12-26T07:15:53.450Z,96937.13
2023-12-26T07:18:20.447Z,96917.84
2023-12-26T07:20:47.483Z,96926.06
2023-12-26T07:23:14.335Z,96947.00
2023-12-26T07:25:42.334Z,96944.59
2023-12-26T07:28:09.277Z,96950.34
2023-12-26T07:30:36.311Z,96945.81
2023-12-26T07:33:03.403Z,96938.13
2023-12-26T07:35:31.957Z,96960.38
2023-12-26T07:37:58.684Z,96974.00
2023-12-26T07:40:25.505Z,96969.59
2023-12-26T07:42:52.627Z,96962.75
2023-12-26T07:45:24.410Z,96964.09
2023-12-26T07:47:51.658Z,96972.47
2023-12-26T07:50:18.729Z,96979.50
2023-12-26T07:52:45.974Z,96973.94
2023-12-26T07:55:17.487Z,96974.94
2023-12-26T07:57:45.405Z,96971.75
2023-12-26T08:00:13.175Z,96968.56
2023-12-26T08:02:43.304Z,96980.44
2023-12-26T08:05:10.879Z,96977.94
2023-12-26T08:07:37.766Z,96981.84
2023-12-26T08:10:04.808Z,96981.81
2023-12-26T08:12:31.664Z,96977.22
2023-12-26T08:14:58.422Z,96989.03
2023-12-26T08:17:25.448Z,97013.16
2023-12-26T08:19:52.274Z,97003.50
2023-12-26T08:22:19.113Z,97005.84
2023-12-26T08:24:45.880Z,97013.88
2023-12-26T08:27:12.793Z,97019.41
2023-12-26T08:29:39.622Z,97017.28
2023-12-26T08:32:07.574Z,97020.88
2023-12-26T08:34:34.399Z,97045.97
2023-12-26T08:37:01.236Z,97044.19
2023-12-26T08:39:28.168Z,97050.03
2023-12-26T08:41:55.005Z,97062.13
2023-12-26T08:44:21.865Z,97059.03
2023-12-26T08:46:51.618Z,97061.84
2023-12-26T08:49:18.497Z,97059.31
2023-12-26T08:51:45.311Z,97062.28
2023-12-26T08:54:13.215Z,97078.16
2023-12-26T08:56:43.167Z,97078.19
2023-12-26T08:59:10.123Z,97070.56
2023-12-26T09:01:37.150Z,97080.13
2023-12-26T09:04:04.873Z,97077.06
2023-12-26T09:06:32.286Z,97090.63
2023-12-26T09:08:59.290Z,97101.41
2023-12-26T09:11:26.129Z,97101.72
2023-12-26T09:13:53.896Z,97095.19
2023-12-26T09:16:20.747Z,97080.03
2023-12-26T09:18:48.657Z,97097.44
2023-12-26T09:21:15.772Z,97103.31
2023-12-26T09:23:42.830Z,97126.16
2023-12-26T09:26:09.663Z,97117.00
2023-12-26T09:28:39.351Z,97122.09
2023-12-26T09:31:06.052Z,97127.56
2023-12-26T09:33:32.931Z,97134.88
2023-12-26T09:35:59.797Z,97127.44
2023-12-26T09:38:26.610Z,97143.50
2023-12-26T09:40:53.535Z,97136.69
2023-12-26T09:43:20.385Z,97160.00
2023-12-26T09:45:47.250Z,97153.66
2023-12-26T09:48:14.589Z,97157.81
2023-12-26T09:50:41.637Z,97163.28
2023-12-26T09:53:09.515Z,97162.78
2023-12-26T09:55:36.795Z,97182.25
2023-12-26T09:58:03.832Z,97184.75
2023-12-26T10:00:31.254Z,97185.66
2023-12-26T10:02:58.823Z,97183.28
2023-12-26T10:05:27.549Z,97166.75
2023-12-26T10:07:54.471Z,97177.56
2023-12-26T10:10:21.840Z,97176.91
2023-12-26T10:12:49.648Z,97168.44
2023-12-26T10:15:17.571Z,97168.59
2023-12-26T10:17:45.227Z,97185.28
2023-12-26T10:20:16.435Z,97184.31
2023-12-26T10:22:44.307Z,97179.91
2023-12-26T10:25:14.172Z,97191.81
2023-12-26T10:27:41.684Z,97199.19
2023-12-26T10:30:09.223Z,97195.16
2023-12-26T10:32:36.444Z,97196.94
2023-12-26T10:35:15.458Z,97196.28
2023-12-26T10:37:43.179Z,97193.03
2023-12-26T10:40:10.917Z,97212.53
2023-12-26T10:42:41.007Z,97202.78
2023-12-26T10:45:09.995Z,97206.63
2023-12-26T10:47:40.072Z,97219.16
2023-12-26T10:50:10.222Z,97223.47
2023-12-26T10:52:41.377Z,97226.31
2023-12-26T10:55:09.337Z,97228.44
2023-12-26T10:57:36.730Z,97228.84
2023-12-26T11:00:50.855Z,97231.66
2023-12-26T11:04:14.056Z,97233.28
2023-12-26T11:07:55.873Z,97233.44
2023-12-26T11:11:37.583Z,97238.66
2023-12-26T11:15:19.754Z,97232.34
2023-12-26T11:19:01.743Z,97246.16
2023-12-26T11:22:43.924Z,97232.94
2023-12-26T11:26:25.649Z,97239.34
2023-12-26T11:30:07.790Z,97250.63
2023-12-26T11:33:50.401Z,97254.25
2023-12-26T11:37:32.299Z,97251.94
2023-12-26T11:41:13.821Z,97256.44
2023-12-26T11:44:55.863Z,97269.25
2023-12-26T11:48:38.030Z,97276.22
2023-12-26T11:52:19.728Z,97292.75
2023-12-26T11:56:01.649Z,97304.75
2023-12-26T11:59:43.525Z,97301.53
2023-12-26T12:03:25.491Z,97302.66
2023-12-26T12:07:07.339Z,97298.22
2023-12-26T12:10:49.251Z,97301.84
2023-12-26T12:14:30.923Z,97279.69
2023-12-26T12:18:12.557Z,97285.19
2023-12-26T12:21:54.474Z,97290.38
2023-12-26T12:25:36.326Z,97284.13
2023-12-26T12:29:18.299Z,97284.41
2023-12-26T12:33:00.019Z,97292.22
2023-12-26T12:36:42.071Z,97288.13
2023-12-26T12:40:23.733Z,97277.28
2023-12-26T12:44:14.961Z,97283.13
2023-12-26T12:47:58.509Z,97293.91
2023-12-26T12:51:40.675Z,97295.41
2023-12-26T12:55:23.920Z,97303.69
2023-12-26T12:59:07.781Z,97304.25
2023-12-26T13:02:49.115Z,97310.31
2023-12-26T13:06:31.422Z,97321.94
2023-12-26T13:10:13.276Z,97327.00
2023-12-26T13:13:54.967Z,97340.19
2023-12-26T13:17:37.017Z,97360.53
2023-12-26T13:21:18.925Z,97352.00
2023-12-26T13:25:01.680Z,97352.75
2023-12-26T13:28:44.058Z,97342.88
2023-12-26T13:32:25.844Z,97346.22
2023-12-26T13:36:07.885Z,97374.53
2023-12-26T13:39:50.142Z,97370.75
2023-12-26T13:43:35.442Z,97374.81
2023-12-26T13:47:17.830Z,97389.78
2023-12-26T13:50:59.570Z,97393.16
2023-12-26T13:53:44.977Z,97390.09
2023-12-26T13:56:49.623Z,97396.63
2023-12-26T13:59:54.049Z,97390.28
2023-12-26T14:02:20.679Z,97398.19
2023-12-26T14:04:47.696Z,97407.97
2023-12-26T14:07:56.420Z,97397.34
2023-12-26T14:11:01.083Z,97415.09
2023-12-26T14:13:27.852Z,97408.75
2023-12-26T14:15:54.464Z,97403.50
2023-12-26T14:18:58.838Z,97412.03
2023-12-26T14:22:03.382Z,97409.94
2023-12-26T14:25:08.065Z,97425.91
2023-12-26T14:27:34.753Z,97417.28
2023-12-26T14:30:01.517Z,97429.03
2023-12-26T14:33:05.831Z,97433.63
2023-12-26T14:36:10.549Z,97441.59
2023-12-26T14:38:37.276Z,97444.56
2023-12-26T14:41:03.937Z,97448.94
2023-12-26T14:44:08.041Z,97453.81
2023-12-26T14:47:12.106Z,97468.28
2023-12-26T14:49:38.878Z,97459.56
2023-12-26T14:52:43.539Z,97460.41
2023-12-26T14:55:47.874Z,97452.91
2023-12-26T14:58:14.617Z,97460.56
2023-12-26T15:00:41.430Z,97466.91
2023-12-26T15:03:08.512Z,97473.81
2023-12-26T15:05:35.794Z,97469.53
2023-12-26T15:08:04.207Z,97476.94
2023-12-26T15:10:32.287Z,97475.88
2023-12-26T15:13:01.266Z,97465.06
2023-12-26T15:15:28.185Z,97481.22
2023-12-26T15:17:55.318Z,97471.34
2023-12-26T15:20:22.122Z,97482.16
2023-12-26T15:22:48.950Z,97474.88
2023-12-26T15:25:18.345Z,97489.44
2023-12-26T15:27:45.274Z,97491.72
2023-12-26T15:30:12.599Z,97492.97
2023-12-26T15:32:39.529Z,97504.75
2023-12-26T15:35:07.232Z,97498.97
2023-12-26T15:37:34.621Z,97493.34
2023-12-26T15:40:01.811Z,97501.50
2023-12-26T15:42:28.767Z,97500.88
2023-12-26T15:44:55.513Z,97506.53
2023-12-26T15:47:23.607Z,97497.19
2023-12-26T15:49:50.809Z,97518.03
2023-12-26T15:52:18.754Z,97509.59
2023-12-26T15:54:45.706Z,97511.25
2023-12-26T15:57:12.522Z,97523.75
2023-12-26T15:59:39.319Z,97530.09
2023-12-26T16:02:06.152Z,97525.06
2023-12-26T16:04:33.265Z,97529.34
2023-12-26T16:07:00.205Z,97528.81
2023-12-26T16:09:29.664Z,97530.47
2023-12-26T16:11:57.692Z,97530.31
2023-12-26T16:14:27.497Z,97537.94
2023-12-26T16:16:54.569Z,97546.94
2023-12-26T16:19:21.552Z,97544.31
2023-12-26T16:21:48.401Z,97550.31
2023-12-26T16:24:15.276Z,97535.75
2023-12-26T16:26:44.628Z,97549.91
2023-12-26T16:29:12.272Z,97549.66
2023-12-26T16:31:39.539Z,97548.22
2023-12-26T16:34:06.767Z,97557.97
2023-12-26T16:36:33.985Z,97550.94
2023-12-26T16:39:01.156Z,97550.72
2023-12-26T16:41:28.275Z,97559.31
2023-12-26T16:43:55.081Z,97557.88
2023-12-26T16:46:22.818Z,97568.97
2023-12-26T16:48:50.185Z,97571.00
2023-12-26T16:51:17.190Z,97582.03
2023-12-26T16:53:44.102Z,97599.47
2023-12-26T16:56:11.466Z,97588.78
2023-12-26T16:58:40.487Z,97603.44
2023-12-26T17:01:08.315Z,97602.81
2023-12-26T17:03:38.105Z,97595.59
2023-12-26T17:06:05.158Z,97607.41
2023-12-26T17:08:32.107Z,97605.13
2023-12-26T17:11:00.506Z,97600.72
2023-12-26T17:13:28.673Z,97613.44
2023-12-26T17:15:55.840Z,97601.28
2023-12-26T17:18:23.074Z,97607.97
2023-12-26T17:20:49.956Z,97608.03
2023-12-26T17:23:16.782Z,97599.09
2023-12-26T17:25:43.517Z,97625.47
2023-12-26T17:28:11.090Z,97633.09
2023-12-26T17:30:38.264Z,97633.56
2023-12-26T17:33:05.653Z,97647.75
2023-12-26T17:35:32.899Z,97650.91
2023-12-26T17:37:59.728Z,97657.88
2023-12-26T17:40:26.581Z,97655.50
2023-12-26T17:42:53.920Z,97658.56
2023-12-26T17:45:20.883Z,97668.09
2023-12-26T17:47:48.670Z,97667.03
2023-12-26T17:50:15.863Z,97669.53
2023-12-26T17:52:42.608Z,97670.75
2023-12-26T17:55:09.446Z,97680.75
2023-12-26T17:57:36.333Z,97693.28
2023-12-26T18:00:07.217Z,97685.63
2023-12-26T18:02:36.435Z,97696.16
2023-12-26T18:05:03.466Z,97693.69
2023-12-26T18:07:30.248Z,97704.28
2023-12-26T18:09:56.973Z,97703.47
2023-12-26T18:12:23.870Z,97707.00
2023-12-26T18:14:50.806Z,97708.72
2023-12-26T18:17:18.200Z,97709.50
2023-12-26T18:19:46.099Z,97724.72
2023-12-26T18:22:13.055Z,97723.16
2023-12-26T18:24:39.870Z,97736.28
2023-12-26T18:27:06.758Z,97733.41
2023-12-26T18:29:33.915Z,97730.69
2023-12-26T18:32:00.794Z,97742.66
2023-12-26T18:34:28.165Z,97744.69
2023-12-26T18:36:55.148Z,97752.00
2023-12-26T18:39:22.069Z,97755.00
2023-12-26T18:41:48.918Z,97766.31
2023-12-26T18:44:15.810Z,97770.63
2023-12-26T18:46:45.451Z,97781.72
2023-12-26T18:49:12.823Z,97766.56
2023-12-26T18:51:39.826Z,97761.47
2023-12-26T18:54:06.823Z,97784.28
2023-12-26T18:56:33.584Z,97791.69
2023-12-26T18:59:00.445Z,97771.88
2023-12-26T19:01:27.377Z,97784.78
2023-12-26T19:03:54.908Z,97776.28
2023-12-26T19:06:22.004Z,97776.28
2023-12-26T19:08:49.129Z,97777.09
2023-12-26T19:11:19.586Z,97782.59
2023-12-26T19:13:46.488Z,97797.66
2023-12-26T19:16:13.406Z,97793.19
2023-12-26T19:18:40.364Z,97783.50
2023-12-26T19:21:11.628Z,97787.94
2023-12-26T19:23:38.566Z,97801.88
2023-12-26T19:26:05.432Z,97790.47
2023-12-26T19:28:32.266Z,97785.50
2023-12-26T19:30:59.283Z,97796.69
2023-12-26T19:33:26.458Z,97794.31
2023-12-26T19:35:53.434Z,97798.59
2023-12-26T19:38:21.261Z,97786.47
2023-12-26T19:40:49.346Z,97790.38
2023-12-26T19:43:16.263Z,97797.78
2023-12-26T19:45:43.069Z,97810.56
2023-12-26T19:48:10.571Z,97806.09
2023-12-26T19:50:38.888Z,97805.88
2023-12-26T19:53:05.710Z,97813.97
2023-12-26T19:55:32.479Z,97811.69
2023-12-26T19:57:59.516Z,97813.00
2023-12-26T20:00:26.524Z,97819.28
2023-12-26T20:02:53.355Z,97828.50
2023-12-26T20:05:20.267Z,97831.31
2023-12-26T20:07:47.057Z,97839.59
2023-12-26T20:10:14.018Z,97830.00
2023-12-26T20:12:40.919Z,97832.88
2023-12-26T20:15:08.269Z,97816.69
2023-12-26T20:17:35.614Z,97819.88
2023-12-26T20:20:02.998Z,97832.28
2023-12-26T20:22:29.834Z,97830.41
2023-12-26T20:24:56.990Z,97842.72
2023-12-26T20:27:23.891Z,97833.50
2023-12-26T20:29:50.691Z,97851.91
2023-12-26T20:32:17.477Z,97847.69
2023-12-26T20:34:44.345Z,97851.00
2023-12-26T20:37:11.093Z,97846.28
2023-12-26T20:39:37.896Z,97843.00
2023-12-26T20:42:05.622Z,97850.19
2023-12-26T20:44:32.514Z,97852.69
2023-12-26T20:46:59.168Z,97860.19
2023-12-26T20:49:28.886Z,97876.88
2023-12-26T20:51:57.932Z,97876.19
2023-12-26T20:54:25.353Z,97874.06
2023-12-26T20:56:52.693Z,97872.25
2023-12-26T20:59:20.769Z,97879.16
2023-12-26T21:01:48.757Z,97884.78
2023-12-26T21:04:17.364Z,97886.13
2023-12-26T21:06:47.443Z,97894.22
2023-12-26T21:09:14.922Z,97887.78
2023-12-26T21:11:42.270Z,97904.50
2023-12-26T21:14:14.481Z,97904.28
2023-12-26T21:16:42.065Z,97885.50
2023-12-26T21:19:10.015Z,97922.59
2023-12-26T21:21:37.437Z,97923.97
2023-12-26T21:24:05.924Z,97928.97
2023-12-26T21:26:32.703Z,97932.41
2023-12-26T21:28:59.376Z,97938.69
2023-12-26T21:31:27.586Z,97942.66
2023-12-26T21:33:57.599Z,97940.13
2023-12-26T21:36:27.078Z,97949.09
2023-12-26T21:38:53.946Z,97944.94
2023-12-26T21:41:21.139Z,97953.22
2023-12-26T21:43:47.783Z,97960.88
2023-12-26T21:46:16.339Z,97955.66
2023-12-26T21:48:43.449Z,97954.94
2023-12-26T21:51:11.785Z,97979.00
2023-12-26T21:53:39.684Z,97972.53
2023-12-26T21:56:07.907Z,97971.72
2023-12-26T21:58:36.064Z,97992.16
2023-12-26T22:01:04.656Z,97988.44
2023-12-26T22:03:31.734Z,97986.97
2023-12-26T22:05:58.636Z,98003.25
2023-12-26T22:08:26.647Z,97999.31
2023-12-26T22:10:54.839Z,97995.06
2023-12-26T22:13:22.030Z,97998.19
2023-12-26T22:15:49.566Z,98012.00
2023-12-26T22:18:17.761Z,97996.72
2023-12-26T22:20:44.962Z,98013.88
2023-12-26T22:23:11.737Z,98012.66
2023-12-26T22:25:38.433Z,98018.84
2023-12-26T22:28:05.761Z,98020.41
2023-12-26T22:30:33.596Z,98016.16
2023-12-26T22:33:01.619Z,98019.34
2023-12-26T22:35:28.872Z,98029.91
2023-12-26T22:37:56.196Z,97997.59
2023-12-26T22:40:23.819Z,98018.75
2023-12-26T22:42:51.557Z,98031.31
2023-12-26T22:45:18.897Z,98038.63
2023-12-26T22:47:46.246Z,98030.97
2023-12-26T22:50:13.557Z,98040.34
2023-12-26T22:52:40.544Z,98035.56
2023-12-26T22:55:08.064Z,98047.97
2023-12-26T22:57:38.872Z,98067.88
2023-12-26T23:00:11.077Z,98069.13
2023-12-26T23:02:38.334Z,98068.63
2023-12-26T23:05:07.375Z,98062.72
2023-12-26T23:07:34.525Z,98063.84
2023-12-26T23:10:01.327Z,98064.41
2023-12-26T23:12:28.311Z,98065.69
2023-12-26T23:14:55.223Z,98078.72
2023-12-26T23:17:22.415Z,98077.97
2023-12-26T23:19:49.409Z,98075.91
2023-12-26T23:22:16.246Z,98080.53
2023-12-26T23:24:43.077Z,98082.34
2023-12-26T23:27:09.954Z,98083.38
2023-12-26T23:29:36.627Z,98088.69
2023-12-26T23:32:03.554Z,98086.09
2023-12-26T23:34:46.679Z,98090.38
2023-12-26T23:37:15.726Z,98077.28
2023-12-26T23:39:44.036Z,98090.09
2023-12-26T23:42:11.260Z,98087.97
2023-12-26T23:44:38.129Z,98099.09
2023-12-26T23:47:05.070Z,98081.09
2023-12-26T23:49:31.898Z,98088.75
2023-12-26T23:51:58.736Z,98102.63
2023-12-26T23:54:25.567Z,98099.72
2023-12-26T23:56:52.436Z,98095.53
2023-12-26T23:59:19.277Z,98099.94
